Terminal Aerodrome Forecast
Issued by NWS Louisville, KY

Home | Current Version | Previous Version | Text Only | Print | Product List | Glossary On
Versions: 1 2 3 4 5 6 7 8 9 10 11 12 13 14 15
000
FTUS43 KLMK 272300
TAFLEX
TAF
KLEX 272329Z 2800/2824 26010G16KT P6SM BKN035
     FM280300 29008KT P6SM SCT050
     FM281000 29007KT P6SM BKN025
     FM281500 32011KT P6SM BKN040=

USA.gov is the U.S. government's official web portal to all federal, state and local government web resources and services.